Terminal Aerodrome Forecast
Issued by NWS Grand Forks, ND

Home | Current Version | Previous Version | Graphics & Text | Print | Product List | Glossary On
Versions: 1 2 3 4 5 6 7 8 9 10 11 12 13 14 15 16 17 18 19 20 21
000
FTUS43 KFGF 071600 AAA
TAFGFK
TAF AMD
KGFK 071600Z 0716/0812 30024G32KT 2SM BLSN BKN020 OVC030
      TEMPO 0716/0720 30025G35KT 1/2SM -SN BLSN OVC015
     FM072000 32023G31KT 1SM -SN BLSN OVC015
     FM080100 31020G29KT P6SM OVC015=

USA.gov is the U.S. government's official web portal to all federal, state and local government web resources and services.